<?xml version="1.0" encoding="UTF-8" standalone="no" ?>
<gpx xmlns="http://www.topografix.com/GPX/1/1" xmlns:xsi="http://www.w3.org/2001/XMLSchema-instance" xsi:schemaLocation="http://www.topografix.com/GPX/1/1 http://www.topografix.com/GPX/1/1/gpx.xsd" version="1.1" creator="VisuGPX - https://www.visugpx.com">
  <metadata>
    <name>#FONT/ point_de_vue_inspecteur_pk_car_marlotte</name>
    <desc><![CDATA[Balade à partir du carrefour de Marlotte]]></desc>
  </metadata>
  <trk>
    <name><![CDATA[Point de vue Inspecteur PK Car Marlotte-17348221]]></name>
    <extensions>
      <line xmlns="http://www.topografix.com/GPX/gpx_style/0/2">
        <color>0000FF</color>
        <width>4</width>
      </line>
    </extensions>
    <trkseg>
      <trkpt lat="48.36954" lon="2.71992">
        <ele>94</ele>
        <time>2023-08-04T07:50:02Z</time>
      </trkpt>
      <trkpt lat="48.37119" lon="2.71973">
        <ele>99</ele>
        <time>2023-08-04T07:53:43Z</time>
      </trkpt>
      <trkpt lat="48.3728" lon="2.71973">
        <ele>98</ele>
        <time>2023-08-04T07:57:18Z</time>
      </trkpt>
      <trkpt lat="48.37469" lon="2.71965">
        <ele>98</ele>
        <time>2023-08-04T08:01:30Z</time>
      </trkpt>
      <trkpt lat="48.37502" lon="2.7192">
        <ele>101</ele>
        <time>2023-08-04T08:02:29Z</time>
      </trkpt>
      <trkpt lat="48.37632" lon="2.71885">
        <ele>103</ele>
        <time>2023-08-04T08:05:26Z</time>
      </trkpt>
      <trkpt lat="48.37725" lon="2.71848">
        <ele>111</ele>
        <time>2023-08-04T08:07:34Z</time>
      </trkpt>
      <trkpt lat="48.37764" lon="2.71775">
        <ele>119</ele>
        <time>2023-08-04T08:08:57Z</time>
      </trkpt>
      <trkpt lat="48.37801" lon="2.7174">
        <ele>124</ele>
        <time>2023-08-04T08:09:55Z</time>
      </trkpt>
      <trkpt lat="48.37835" lon="2.71764">
        <ele>127</ele>
        <time>2023-08-04T08:10:45Z</time>
      </trkpt>
      <trkpt lat="48.37868" lon="2.71737">
        <ele>121</ele>
        <time>2023-08-04T08:11:36Z</time>
      </trkpt>
      <trkpt lat="48.37989" lon="2.71733">
        <ele>107</ele>
        <time>2023-08-04T08:14:17Z</time>
      </trkpt>
      <trkpt lat="48.38105" lon="2.71793">
        <ele>101</ele>
        <time>2023-08-04T08:17:01Z</time>
      </trkpt>
      <trkpt lat="48.38138" lon="2.71563">
        <ele>111</ele>
        <time>2023-08-04T08:20:29Z</time>
      </trkpt>
      <trkpt lat="48.38195" lon="2.71295">
        <ele>116</ele>
        <time>2023-08-04T08:24:39Z</time>
      </trkpt>
      <trkpt lat="48.38206" lon="2.71124">
        <ele>124</ele>
        <time>2023-08-04T08:27:11Z</time>
      </trkpt>
      <trkpt lat="48.38227" lon="2.70757">
        <ele>119</ele>
        <time>2023-08-04T08:32:37Z</time>
      </trkpt>
      <trkpt lat="48.38254" lon="2.70421">
        <ele>111</ele>
        <time>2023-08-04T08:37:37Z</time>
      </trkpt>
      <trkpt lat="48.38296" lon="2.69997">
        <ele>105</ele>
        <time>2023-08-04T08:43:57Z</time>
      </trkpt>
      <trkpt lat="48.38321" lon="2.69787">
        <ele>100</ele>
        <time>2023-08-04T08:47:06Z</time>
      </trkpt>
      <trkpt lat="48.38212" lon="2.69458">
        <ele>108</ele>
        <time>2023-08-04T08:52:32Z</time>
      </trkpt>
      <trkpt lat="48.38131" lon="2.69295">
        <ele>105</ele>
        <time>2023-08-04T08:55:33Z</time>
      </trkpt>
      <trkpt lat="48.38108" lon="2.69238">
        <ele>102</ele>
        <time>2023-08-04T08:56:32Z</time>
      </trkpt>
      <trkpt lat="48.38022" lon="2.69248">
        <ele>102</ele>
        <time>2023-08-04T08:58:27Z</time>
      </trkpt>
      <trkpt lat="48.37856" lon="2.69202">
        <ele>94</ele>
        <time>2023-08-04T09:02:12Z</time>
      </trkpt>
      <trkpt lat="48.37832" lon="2.69577">
        <ele>105</ele>
        <time>2023-08-04T09:07:46Z</time>
      </trkpt>
      <trkpt lat="48.37769" lon="2.69835">
        <ele>124</ele>
        <time>2023-08-04T09:11:50Z</time>
      </trkpt>
      <trkpt lat="48.37694" lon="2.6986">
        <ele>128</ele>
        <time>2023-08-04T09:13:32Z</time>
      </trkpt>
      <trkpt lat="48.37666" lon="2.69982">
        <ele>129</ele>
        <time>2023-08-04T09:15:27Z</time>
      </trkpt>
      <trkpt lat="48.37618" lon="2.69968">
        <ele>127</ele>
        <time>2023-08-04T09:16:32Z</time>
      </trkpt>
      <trkpt lat="48.3757" lon="2.70013">
        <ele>126</ele>
        <time>2023-08-04T09:17:47Z</time>
      </trkpt>
      <trkpt lat="48.37502" lon="2.69993">
        <ele>125</ele>
        <time>2023-08-04T09:19:20Z</time>
      </trkpt>
      <trkpt lat="48.37522" lon="2.69631">
        <ele>120</ele>
        <time>2023-08-04T09:24:42Z</time>
      </trkpt>
      <trkpt lat="48.37427" lon="2.69414">
        <ele>121</ele>
        <time>2023-08-04T09:28:32Z</time>
      </trkpt>
      <trkpt lat="48.37192" lon="2.69109">
        <ele>103</ele>
        <time>2023-08-04T09:35:26Z</time>
      </trkpt>
      <trkpt lat="48.37055" lon="2.69174">
        <ele>103</ele>
        <time>2023-08-04T09:38:38Z</time>
      </trkpt>
      <trkpt lat="48.36865" lon="2.69308">
        <ele>115</ele>
        <time>2023-08-04T09:43:18Z</time>
      </trkpt>
      <trkpt lat="48.36858" lon="2.69442">
        <ele>115</ele>
        <time>2023-08-04T09:45:17Z</time>
      </trkpt>
      <trkpt lat="48.36824" lon="2.69819">
        <ele>122</ele>
        <time>2023-08-04T09:50:54Z</time>
      </trkpt>
      <trkpt lat="48.368" lon="2.70147">
        <ele>133</ele>
        <time>2023-08-04T09:55:47Z</time>
      </trkpt>
      <trkpt lat="48.36773" lon="2.70616">
        <ele>134</ele>
        <time>2023-08-04T10:02:44Z</time>
      </trkpt>
      <trkpt lat="48.37046" lon="2.70624">
        <ele>137</ele>
        <time>2023-08-04T10:08:49Z</time>
      </trkpt>
      <trkpt lat="48.37257" lon="2.70654">
        <ele>135</ele>
        <time>2023-08-04T10:13:32Z</time>
      </trkpt>
      <trkpt lat="48.3724" lon="2.70968">
        <ele>138</ele>
        <time>2023-08-04T10:18:11Z</time>
      </trkpt>
      <trkpt lat="48.37223" lon="2.71311">
        <ele>129</ele>
        <time>2023-08-04T10:23:16Z</time>
      </trkpt>
      <trkpt lat="48.37206" lon="2.71562">
        <ele>126</ele>
        <time>2023-08-04T10:26:59Z</time>
      </trkpt>
      <trkpt lat="48.37202" lon="2.7165">
        <ele>124</ele>
        <time>2023-08-04T10:28:18Z</time>
      </trkpt>
      <trkpt lat="48.37203" lon="2.71727">
        <ele>118</ele>
        <time>2023-08-04T10:29:26Z</time>
      </trkpt>
      <trkpt lat="48.37232" lon="2.71699">
        <ele>122</ele>
        <time>2023-08-04T10:30:12Z</time>
      </trkpt>
      <trkpt lat="48.3726" lon="2.71778">
        <ele>111</ele>
        <time>2023-08-04T10:31:31Z</time>
      </trkpt>
      <trkpt lat="48.37215" lon="2.71844">
        <ele>105</ele>
        <time>2023-08-04T10:32:55Z</time>
      </trkpt>
      <trkpt lat="48.37155" lon="2.71927">
        <ele>101</ele>
        <time>2023-08-04T10:34:44Z</time>
      </trkpt>
      <trkpt lat="48.37112" lon="2.71992">
        <ele>99</ele>
        <time>2023-08-04T10:36:05Z</time>
      </trkpt>
      <trkpt lat="48.36945" lon="2.72026">
        <ele>93</ele>
        <time>2023-08-04T10:39:50Z</time>
      </trkpt>
    </trkseg>
  </trk>
</gpx>